Time;durP1;ratioP1;P1;durP2;ratioP2;P2;SDS_P1;SDS_P2;PMS_P1;PMS_P2;Temp;Humidity;BMP_temperature;BMP_pressure;BME280_temperature;BME280_humidity;BME280_pressure;Samples;Min_cycle;Max_cycle;Signal;HPM_P1;HPM_P2
2022/03/17 00:00:55;;;;;;;1999.90;999.90;;;12.20;74.70;;;;;;4991454;28;20040;-83
2022/03/17 00:03:22;;;;;;;1999.90;999.90;;;12.10;74.60;;;;;;4990733;28;20042;-83
2022/03/17 00:05:48;;;;;;;1999.90;999.90;;;12.10;74.70;;;;;;4975736;28;20389;-83
2022/03/17 00:08:15;;;;;;;1999.90;999.90;;;12.00;74.80;;;;;;4992216;28;20471;-83
2022/03/17 00:10:41;;;;;;;1999.90;999.90;;;12.00;74.80;;;;;;4991977;28;20047;-83
2022/03/17 00:13:07;;;;;;;1999.90;999.90;;;12.00;74.90;;;;;;4992803;28;20075;-83
2022/03/17 00:15:33;;;;;;;1999.90;999.90;;;12.00;74.90;;;;;;4991948;28;20034;-83
2022/03/17 00:17:59;;;;;;;1999.90;999.90;;;12.00;74.90;;;;;;4991706;28;20050;-83
2022/03/17 00:20:25;;;;;;;1999.90;999.90;;;11.90;74.90;;;;;;4992034;28;20034;-83
2022/03/17 00:22:51;;;;;;;1999.90;999.90;;;11.90;75.00;;;;;;4991977;28;20387;-83
2022/03/17 00:25:17;;;;;;;1999.90;999.90;;;11.80;74.90;;;;;;4988245;28;20046;-83
2022/03/17 00:27:43;;;;;;;1999.90;999.90;;;11.80;74.90;;;;;;4992082;28;20023;-83
2022/03/17 00:30:10;;;;;;;1999.90;999.90;;;11.80;74.90;;;;;;4990391;28;20045;-82
2022/03/17 00:32:37;;;;;;;1999.90;999.90;;;11.80;75.10;;;;;;4993011;28;20394;-83
2022/03/17 00:37:51;;;;;;;1999.90;999.90;;;11.70;75.20;;;;;;4991566;28;20490;-83
2022/03/17 00:40:17;;;;;;;1999.90;999.90;;;11.60;75.10;;;;;;4990631;28;20034;-83
2022/03/17 00:42:44;;;;;;;1999.90;999.90;;;11.60;75.20;;;;;;4991896;28;20037;-83
2022/03/17 00:45:11;;;;;;;1999.90;999.90;;;11.60;75.30;;;;;;4990872;28;20042;-83
2022/03/17 00:47:37;;;;;;;1999.90;999.90;;;11.60;75.30;;;;;;4992101;28;20034;-84
2022/03/17 00:50:04;;;;;;;1999.90;999.90;;;11.60;75.30;;;;;;4990767;28;20030;-83
2022/03/17 00:52:30;;;;;;;1999.90;999.90;;;11.60;75.30;;;;;;4992918;28;20487;-83
2022/03/17 00:54:57;;;;;;;1999.90;999.90;;;11.60;75.20;;;;;;4991955;28;20022;-83
2022/03/17 00:57:24;;;;;;;1999.90;999.90;;;11.60;75.20;;;;;;4989969;28;20045;-84
2022/03/17 00:59:50;;;;;;;1999.90;999.90;;;11.60;75.20;;;;;;4990701;28;20049;-83
2022/03/17 01:02:17;;;;;;;1999.90;999.90;;;11.50;75.10;;;;;;4991341;28;20041;-83
2022/03/17 01:04:43;;;;;;;1999.90;999.90;;;11.50;75.20;;;;;;4988798;28;20035;-83
2022/03/17 01:07:09;;;;;;;1999.90;999.90;;;11.50;75.10;;;;;;4989864;28;20026;-83
2022/03/17 01:09:35;;;;;;;1999.90;999.90;;;11.50;75.20;;;;;;4991937;28;20053;-83
2022/03/17 01:12:02;;;;;;;1999.90;999.90;;;11.50;75.20;;;;;;4972303;28;20304;-81
2022/03/17 01:14:28;;;;;;;1999.90;999.90;;;11.50;75.30;;;;;;4993372;28;20045;-82
2022/03/17 01:16:54;;;;;;;1999.90;999.90;;;11.40;75.20;;;;;;4989306;28;20495;-82
2022/03/17 01:19:20;;;;;;;1999.90;999.90;;;11.40;75.20;;;;;;4988605;28;20517;-82
2022/03/17 01:21:47;;;;;;;1999.90;999.90;;;11.40;75.30;;;;;;4987753;28;20027;-82
2022/03/17 01:24:13;;;;;;;1999.90;999.90;;;11.40;75.30;;;;;;4990359;28;20399;-83
2022/03/17 01:26:40;;;;;;;1999.90;999.90;;;11.40;75.40;;;;;;4990865;28;20042;-83
2022/03/17 01:29:06;;;;;;;1999.90;999.90;;;11.40;75.30;;;;;;4989058;28;20042;-83
2022/03/17 01:31:32;;;;;;;1999.90;999.90;;;11.40;75.30;;;;;;4991878;28;20380;-83
2022/03/17 01:33:58;;;;;;;1999.90;999.90;;;11.40;75.40;;;;;;4991307;28;20060;-83
2022/03/17 01:36:28;;;;;;;1505.22;754.97;;;11.40;75.30;;;;;;4988556;28;20038;-83
2022/03/17 01:38:54;;;;;;;1505.28;755.03;;;11.40;75.30;;;;;;4992369;28;20038;-83
2022/03/17 01:41:20;;;;;;;1999.90;999.90;;;11.40;75.20;;;;;;4988533;28;20065;-83
2022/03/17 01:43:47;;;;;;;1505.28;755.03;;;11.40;75.20;;;;;;4992370;28;20030;-83
2022/03/17 01:46:15;;;;;;;1999.90;999.90;;;11.30;75.20;;;;;;4987021;28;20030;-83
2022/03/17 01:48:42;;;;;;;1505.22;754.97;;;11.30;75.20;;;;;;4988656;28;20026;-84
2022/03/17 01:51:08;;;;;;;21.35;20.35;;;11.30;75.30;;;;;;4990658;28;20029;-83
2022/03/17 01:53:35;;;;;;;1505.45;755.20;;;11.30;75.20;;;;;;4987624;28;20057;-83
2022/03/17 01:56:01;;;;;;;21.42;20.42;;;11.30;75.30;;;;;;4985629;28;20030;-82
2022/03/17 01:58:27;;;;;;;20.40;19.50;;;11.30;75.30;;;;;;4983913;28;20046;-83
2022/03/17 02:00:53;;;;;;;20.75;19.80;;;11.30;75.30;;;;;;4974932;28;20039;-83
2022/03/17 02:03:20;;;;;;;20.17;19.27;;;11.30;75.20;;;;;;4986315;28;20030;-83
2022/03/17 02:05:46;;;;;;;21.13;20.13;;;11.30;75.20;;;;;;4991825;28;20046;-83
2022/03/17 02:08:15;;;;;;;20.15;19.25;;;11.30;75.20;;;;;;4986009;28;20042;-83
2022/03/17 02:13:25;;;;;;;20.70;19.70;;;11.30;75.20;;;;;;4992973;28;20506;-83
2022/03/17 02:15:52;;;;;;;20.77;19.77;;;11.30;75.20;;;;;;4992747;28;20049;-83
2022/03/17 02:18:19;;;;;;;21.30;20.30;;;11.30;75.30;;;;;;4995853;28;20026;-83
2022/03/17 02:20:45;;;;;;;20.80;19.80;;;11.30;75.30;;;;;;4993413;28;20026;-83
2022/03/17 02:25:57;;;;;;;20.38;19.48;;;11.20;75.30;;;;;;4991040;28;20479;-84
2022/03/17 02:28:24;;;;;;;20.33;19.42;;;11.20;75.30;;;;;;4991607;28;20039;-83
2022/03/17 02:30:50;;;;;;;20.13;19.23;;;11.20;75.40;;;;;;4980790;28;20046;-83
2022/03/17 02:33:16;;;;;;;20.25;19.30;;;11.20;75.40;;;;;;4993537;28;20053;-83
2022/03/17 02:35:43;;;;;;;20.33;19.23;;;11.20;75.40;;;;;;4990192;28;20034;-83
2022/03/17 02:38:13;;;;;;;22.27;20.67;;;11.20;75.40;;;;;;4989477;28;20031;-83
2022/03/17 02:40:41;;;;;;;19.75;18.85;;;11.20;75.40;;;;;;4985583;28;20038;-83
2022/03/17 02:43:07;;;;;;;20.77;19.77;;;11.20;75.40;;;;;;4993742;28;20035;-83
2022/03/17 02:45:34;;;;;;;20.25;19.35;;;11.20;75.40;;;;;;4994404;28;20046;-83
2022/03/17 02:48:00;;;;;;;20.05;19.15;;;11.10;75.40;;;;;;4993883;28;20053;-83
2022/03/17 02:50:26;;;;;;;20.52;19.63;;;11.10;75.30;;;;;;4990978;28;20049;-83
2022/03/17 02:52:52;;;;;;;20.80;19.80;;;11.10;75.40;;;;;;4992326;28;20034;-83
2022/03/17 02:55:19;;;;;;;22.02;20.73;;;11.10;75.50;;;;;;4994604;28;20398;-83
2022/03/17 02:57:45;;;;;;;20.48;19.40;;;11.10;75.50;;;;;;4994617;28;20494;-84
2022/03/17 03:00:12;;;;;;;20.45;19.55;;;11.10;75.50;;;;;;4979270;28;20052;-83
2022/03/17 03:02:38;;;;;;;20.02;19.13;;;11.10;76.00;;;;;;4984977;28;20030;-83
2022/03/17 03:05:05;;;;;;;20.52;19.52;;;11.10;75.50;;;;;;4988156;28;20033;-83
2022/03/17 03:07:31;;;;;;;20.13;19.23;;;11.10;75.50;;;;;;4988207;28;20038;-84
2022/03/17 03:09:58;;;;;;;19.83;18.92;;;11.10;75.50;;;;;;4988436;28;20371;-84
2022/03/17 03:12:24;;;;;;;20.60;19.60;;;11.00;75.50;;;;;;4991399;28;20043;-84
2022/03/17 03:14:50;;;;;;;20.00;19.10;;;11.00;75.50;;;;;;4992142;28;20050;-84
2022/03/17 03:17:16;;;;;;;20.50;19.50;;;11.00;75.60;;;;;;4981529;28;20043;-83
2022/03/17 03:19:42;;;;;;;20.27;19.38;;;10.90;75.60;;;;;;4971061;28;20049;-84
2022/03/17 03:22:08;;;;;;;20.05;19.15;;;10.90;75.60;;;;;;4971077;28;20057;-84
2022/03/17 03:24:36;;;;;;;20.27;19.38;;;10.90;75.60;;;;;;4975498;28;20031;-84
2022/03/17 03:27:03;;;;;;;20.73;19.75;;;10.90;75.60;;;;;;4989972;28;20057;-84
2022/03/17 03:29:30;;;;;;;20.77;19.77;;;10.90;75.60;;;;;;4993967;28;20390;-84
2022/03/17 03:31:57;;;;;;;19.88;18.98;;;10.90;75.70;;;;;;4985160;28;20053;-84
2022/03/17 03:34:24;;;;;;;20.55;19.55;;;10.80;75.70;;;;;;4985898;28;20386;-84
2022/03/17 03:39:35;;;;;;;21.40;20.20;;;10.80;75.60;;;;;;4995590;28;20054;-83
2022/03/17 03:42:01;;;;;;;19.50;18.60;;;10.80;75.60;;;;;;4980380;28;20226;-82
2022/03/17 03:44:28;;;;;;;21.60;20.48;;;10.80;75.60;;;;;;4983516;28;20026;-83
2022/03/17 03:46:54;;;;;;;20.00;19.10;;;10.80;75.60;;;;;;4987263;28;20506;-84
2022/03/17 03:49:21;;;;;;;20.35;19.45;;;10.70;75.60;;;;;;4986118;28;20030;-84
2022/03/17 03:51:47;;;;;;;20.52;19.63;;;10.70;75.60;;;;;;4989529;28;20034;-84
2022/03/17 03:54:17;;;;;;;19.73;18.83;;;10.70;75.60;;;;;;4976543;28;20041;-84
2022/03/17 03:56:47;;;;;;;21.23;20.10;;;10.70;75.60;;;;;;4990982;28;20030;-82
2022/03/17 03:59:19;;;;;;;19.70;18.80;;;10.60;75.70;;;;;;4990076;28;20038;-82
2022/03/17 04:01:46;;;;;;;19.63;18.73;;;10.60;75.70;;;;;;4973626;28;20050;-83
2022/03/17 04:04:18;;;;;;;20.70;19.75;;;10.50;75.70;;;;;;4989709;28;20486;-83
2022/03/17 04:06:46;;;;;;;20.98;19.98;;;10.50;75.70;;;;;;4988696;28;20039;-83
2022/03/17 04:09:13;;;;;;;19.70;18.80;;;10.50;75.70;;;;;;4983220;28;20041;-84
2022/03/17 04:11:40;;;;;;;19.70;18.80;;;10.50;75.70;;;;;;4990423;28;20403;-84
2022/03/17 04:14:07;;;;;;;20.40;19.50;;;10.40;75.70;;;;;;4989140;28;20050;-84
2022/03/17 04:16:33;;;;;;;19.95;19.05;;;10.40;75.70;;;;;;4988432;28;20488;-84
2022/03/17 04:18:59;;;;;;;20.35;19.35;;;10.40;75.70;;;;;;4978420;28;20043;-84
2022/03/17 04:21:25;;;;;;;19.90;19.00;;;10.40;75.70;;;;;;4992084;28;20022;-84
2022/03/17 04:23:51;;;;;;;19.77;18.88;;;10.40;75.70;;;;;;4982941;28;20030;-84
2022/03/17 04:26:17;;;;;;;19.10;18.20;;;10.40;75.70;;;;;;4990504;28;20039;-84
2022/03/17 04:28:44;;;;;;;19.63;18.73;;;10.30;75.60;;;;;;4987969;28;20026;-82
2022/03/17 04:31:10;;;;;;;20.23;19.33;;;10.30;75.60;;;;;;4989687;28;20046;-82
2022/03/17 04:33:36;;;;;;;19.60;18.70;;;10.30;75.70;;;;;;4988481;28;20046;-83
2022/03/17 04:36:03;;;;;;;20.50;19.60;;;10.30;75.60;;;;;;4989708;28;20054;-81
2022/03/17 04:38:29;;;;;;;19.88;18.98;;;10.20;75.60;;;;;;4989186;28;20029;-83
2022/03/17 04:40:55;;;;;;;20.17;19.17;;;10.20;75.60;;;;;;4987821;28;20038;-84
2022/03/17 04:43:21;;;;;;;20.00;19.10;;;10.20;75.60;;;;;;4987575;28;20038;-84
2022/03/17 04:45:47;;;;;;;19.48;18.58;;;10.20;75.50;;;;;;4986874;28;20050;-81
2022/03/17 04:48:14;;;;;;;19.52;18.63;;;10.20;75.50;;;;;;4991648;28;20035;-83
2022/03/17 04:50:40;;;;;;;19.67;18.77;;;10.20;75.60;;;;;;4988404;28;20031;-83
2022/03/17 04:55:51;;;;;;;19.75;18.85;;;10.20;75.60;;;;;;4973576;28;20045;-83
2022/03/17 04:58:18;;;;;;;20.10;19.20;;;10.20;75.60;;;;;;4987539;28;20042;-82
2022/03/17 05:00:44;;;;;;;19.77;18.88;;;10.10;75.50;;;;;;4985652;28;20058;-81
2022/03/17 05:03:10;;;;;;;20.65;19.73;;;10.10;75.50;;;;;;4975177;28;20381;-82
2022/03/17 05:05:36;;;;;;;19.30;18.40;;;10.10;75.50;;;;;;4991932;28;20479;-85
2022/03/17 05:08:03;;;;;;;19.73;18.83;;;10.10;75.50;;;;;;4991292;28;20034;-81
2022/03/17 05:10:29;;;;;;;20.05;19.08;;;10.10;75.50;;;;;;4987441;28;20026;-84
2022/03/17 05:12:56;;;;;;;20.20;19.20;;;10.00;75.40;;;;;;4985636;28;20050;-84
2022/03/17 05:15:24;;;;;;;19.77;18.88;;;10.00;75.50;;;;;;4988517;28;20057;-83
2022/03/17 05:17:50;;;;;;;19.80;18.90;;;10.00;75.40;;;;;;4974453;28;20053;-84
2022/03/17 05:20:16;;;;;;;19.90;19.00;;;9.90;75.40;;;;;;4993526;28;20046;-83
2022/03/17 05:22:43;;;;;;;19.52;18.63;;;9.90;75.50;;;;;;4988639;28;20407;-83
2022/03/17 05:25:10;;;;;;;19.67;18.77;;;9.80;76.20;;;;;;4986214;28;20049;-84
2022/03/17 05:27:37;;;;;;;19.88;18.98;;;9.80;75.40;;;;;;4977828;28;20037;-83
2022/03/17 05:30:04;;;;;;;20.02;19.13;;;9.80;75.40;;;;;;4990128;28;20498;-82
2022/03/17 05:32:30;;;;;;;19.75;18.85;;;9.70;75.30;;;;;;4987277;28;20026;-82
2022/03/17 05:34:56;;;;;;;19.70;18.80;;;9.70;75.40;;;;;;4987100;28;20044;-82
2022/03/17 05:37:23;;;;;;;19.48;18.58;;;9.70;75.30;;;;;;4986999;28;20018;-82
2022/03/17 05:39:50;;;;;;;20.30;19.40;;;9.70;75.30;;;;;;4985663;28;20045;-82
2022/03/17 05:42:17;;;;;;;20.17;19.27;;;9.70;75.40;;;;;;4989833;28;20394;-82
2022/03/17 05:44:43;;;;;;;20.27;19.38;;;9.70;75.40;;;;;;4986404;28;20034;-82
2022/03/17 05:47:09;;;;;;;19.60;18.70;;;9.70;75.30;;;;;;4971922;28;20042;-83
2022/03/17 05:49:35;;;;;;;19.95;19.05;;;9.60;75.30;;;;;;4990231;28;20053;-83
2022/03/17 05:52:01;;;;;;;20.00;19.10;;;9.60;75.30;;;;;;4984500;28;20107;-83
2022/03/17 05:54:28;;;;;;;19.45;18.55;;;9.70;75.30;;;;;;4987239;28;20030;-83
2022/03/17 05:56:54;;;;;;;19.92;19.02;;;9.70;75.40;;;;;;4989125;28;20081;-82
2022/03/17 05:59:20;;;;;;;20.00;19.10;;;9.60;75.30;;;;;;4987715;28;20052;-83
2022/03/17 06:01:46;;;;;;;19.17;18.27;;;9.60;75.20;;;;;;4985207;28;20042;-83
2022/03/17 06:04:12;;;;;;;19.80;18.90;;;9.60;75.30;;;;;;4985099;28;20478;-83
2022/03/17 06:06:38;;;;;;;19.85;18.95;;;9.60;75.20;;;;;;4987580;28;20031;-83
2022/03/17 06:09:04;;;;;;;20.50;19.60;;;9.60;75.20;;;;;;4988779;28;20463;-83
2022/03/17 06:11:31;;;;;;;19.75;18.85;;;9.60;75.20;;;;;;4991166;28;20030;-83
2022/03/17 06:13:59;;;;;;;20.08;19.17;;;9.60;75.10;;;;;;4986131;28;20410;-83
2022/03/17 06:16:25;;;;;;;20.80;19.67;;;9.50;75.20;;;;;;4984852;28;20041;-83
2022/03/17 06:18:51;;;;;;;20.02;19.13;;;9.50;75.10;;;;;;4978516;28;20046;-83
2022/03/17 06:21:17;;;;;;;20.10;19.20;;;9.50;75.10;;;;;;4988017;28;20027;-83
2022/03/17 06:23:43;;;;;;;19.67;18.77;;;9.50;75.10;;;;;;4988784;28;20037;-83
2022/03/17 06:26:09;;;;;;;19.70;18.80;;;9.50;75.00;;;;;;4989986;28;20057;-83
2022/03/17 06:28:35;;;;;;;20.10;19.20;;;9.60;75.00;;;;;;4984974;28;20494;-83
2022/03/17 06:31:01;;;;;;;19.88;18.98;;;9.50;74.90;;;;;;4986023;28;20069;-83
2022/03/17 06:33:31;;;;;;;20.05;19.15;;;9.50;75.00;;;;;;4987775;28;20023;-83
2022/03/17 06:35:57;;;;;;;19.58;18.67;;;9.50;75.00;;;;;;4988811;28;20031;-83
2022/03/17 06:38:23;;;;;;;20.33;19.42;;;9.50;75.00;;;;;;4990216;28;20042;-83
2022/03/17 06:40:49;;;;;;;20.50;19.60;;;9.50;75.00;;;;;;4985470;28;20046;-83
2022/03/17 06:43:16;;;;;;;20.02;19.13;;;9.50;75.00;;;;;;4984761;28;20091;-83
2022/03/17 06:45:44;;;;;;;19.85;18.95;;;9.50;74.90;;;;;;4986889;28;20042;-87
2022/03/17 06:48:10;;;;;;;20.13;19.23;;;9.50;74.90;;;;;;4980994;28;20046;-89
2022/03/17 06:50:36;;;;;;;19.77;18.88;;;9.50;74.90;;;;;;4987851;28;20475;-88
2022/03/17 06:53:03;;;;;;;19.98;19.08;;;9.50;74.90;;;;;;4984166;28;20041;-88
2022/03/17 06:55:31;;;;;;;20.65;19.55;;;9.50;74.90;;;;;;4984524;28;20030;-86
2022/03/17 06:57:57;;;;;;;19.73;18.83;;;9.50;74.90;;;;;;4973887;28;20046;-86
2022/03/17 07:00:23;;;;;;;19.95;19.05;;;9.50;74.90;;;;;;4989373;28;20050;-84
2022/03/17 07:02:49;;;;;;;19.70;18.80;;;9.50;74.90;;;;;;4994621;28;20374;-86
2022/03/17 07:05:15;;;;;;;19.52;18.63;;;9.50;74.90;;;;;;4988697;28;20029;-85
2022/03/17 07:07:43;;;;;;;20.10;19.20;;;9.50;74.90;;;;;;4992966;28;20039;-85
2022/03/17 07:10:09;;;;;;;20.45;19.52;;;9.50;74.80;;;;;;4992237;28;20030;-85
2022/03/17 07:12:36;;;;;;;20.23;19.33;;;9.50;74.80;;;;;;4986514;28;20499;-84
2022/03/17 07:15:03;;;;;;;20.77;19.80;;;9.50;74.80;;;;;;4967068;28;20438;-80
2022/03/17 07:17:42;;;;;;;19.88;18.98;;;9.50;74.80;;;;;;4995262;28;20463;-87
2022/03/17 07:20:12;;;;;;;20.48;19.58;;;9.50;74.80;;;;;;4987719;28;20034;-85
2022/03/17 07:22:41;;;;;;;20.55;19.35;;;9.40;74.70;;;;;;4991014;28;20479;-86
2022/03/17 07:25:09;;;;;;;19.90;19.00;;;9.40;74.80;;;;;;4987822;28;20042;-84
2022/03/17 07:27:43;;;;;;;20.50;19.55;;;9.50;74.80;;;;;;4979913;28;20480;-86
2022/03/17 07:30:15;;;;;;;20.25;19.35;;;9.50;74.80;;;;;;4994184;28;20061;-84
2022/03/17 07:32:41;;;;;;;19.90;18.90;;;9.50;74.80;;;;;;4991724;28;20039;-83
2022/03/17 07:35:07;;;;;;;20.05;19.15;;;9.50;74.80;;;;;;4993666;28;20046;-84
2022/03/17 07:37:33;;;;;;;19.50;18.60;;;9.50;74.80;;;;;;4994002;28;20495;-86
2022/03/17 07:39:59;;;;;;;19.00;18.10;;;9.50;74.80;;;;;;4994119;28;20038;-85
2022/03/17 07:42:26;;;;;;;18.77;17.88;;;9.50;74.80;;;;;;4994338;28;20471;-83
2022/03/17 07:44:52;;;;;;;20.70;19.77;;;9.50;74.70;;;;;;4994236;28;20038;-85
2022/03/17 07:47:19;;;;;;;20.10;19.20;;;9.50;74.70;;;;;;4994289;28;20050;-87
2022/03/17 07:49:45;;;;;;;20.40;19.40;;;9.50;74.70;;;;;;4989268;28;20037;-86
2022/03/17 07:52:13;;;;;;;20.45;19.55;;;9.50;74.70;;;;;;4989985;28;20050;-85
2022/03/17 07:54:39;;;;;;;20.48;19.58;;;9.50;74.60;;;;;;4990768;28;20045;-85
2022/03/17 07:57:05;;;;;;;23.25;22.15;;;9.60;74.60;;;;;;4994328;28;20040;-81
2022/03/17 07:59:32;;;;;;;20.55;19.35;;;9.60;74.60;;;;;;4993118;28;20022;-84
2022/03/17 08:01:58;;;;;;;21.08;20.08;;;9.50;74.50;;;;;;4985495;28;20054;-83
2022/03/17 08:04:24;;;;;;;21.25;20.13;;;9.50;74.60;;;;;;4987001;28;20477;-85
2022/03/17 08:06:53;;;;;;;20.88;19.90;;;9.60;74.60;;;;;;4972167;28;20042;-88
2022/03/17 08:09:20;;;;;;;21.17;20.17;;;9.60;74.50;;;;;;4975508;28;20399;-87
2022/03/17 08:11:48;;;;;;;22.65;21.55;;;9.60;74.40;;;;;;4990157;28;20398;-84
2022/03/17 08:14:16;;;;;;;22.33;21.33;;;9.60;74.40;;;;;;4992998;28;20478;-86
2022/03/17 08:16:43;;;;;;;22.58;21.58;;;9.60;74.40;;;;;;4988810;28;20380;-86
2022/03/17 08:19:11;;;;;;;22.65;21.65;;;9.60;74.40;;;;;;4987332;28;20038;-85
2022/03/17 08:21:38;;;;;;;22.02;21.02;;;9.60;74.30;;;;;;4978496;28;20042;-85
2022/03/17 08:24:04;;;;;;;21.67;20.67;;;9.60;74.40;;;;;;4981036;28;20402;-85
2022/03/17 08:26:31;;;;;;;22.65;21.63;;;9.60;74.40;;;;;;4990771;28;20030;-85
2022/03/17 08:28:57;;;;;;;1999.90;999.90;;;9.70;74.30;;;;;;4988947;28;20494;-85
2022/03/17 08:31:24;;;;;;;23.00;21.90;;;9.70;74.20;;;;;;4988376;28;20038;-85
2022/03/17 08:33:50;;;;;;;22.20;21.20;;;9.60;74.30;;;;;;4989076;28;20038;-85
2022/03/17 08:36:16;;;;;;;1505.63;755.35;;;9.60;74.40;;;;;;4992982;28;20034;-83
2022/03/17 08:38:42;;;;;;;22.00;21.00;;;9.60;74.20;;;;;;4989507;28;20033;-84
2022/03/17 08:41:08;;;;;;;22.15;21.15;;;9.60;74.20;;;;;;4990228;28;20050;-84
2022/03/17 08:43:34;;;;;;;1999.90;999.90;;;9.70;74.20;;;;;;4986453;28;20038;-85
2022/03/17 08:51:30;;;;;;;1999.90;999.90;;;9.70;74.00;;;;;;4986367;28;20034;-84
2022/03/17 08:53:56;;;;;;;1999.90;999.90;;;9.70;74.00;;;;;;4992475;28;20033;-84
2022/03/17 08:56:22;;;;;;;1999.90;999.90;;;9.70;73.90;;;;;;4987840;28;20061;-84
2022/03/17 08:58:48;;;;;;;1999.90;999.90;;;9.70;73.90;;;;;;4985529;28;20030;-84
2022/03/17 09:01:14;;;;;;;1999.90;999.90;;;9.70;73.90;;;;;;4986148;28;20069;-85
2022/03/17 09:03:40;;;;;;;1999.90;999.90;;;9.70;73.90;;;;;;4990676;28;20041;-85
2022/03/17 09:06:06;;;;;;;1999.90;999.90;;;9.70;73.80;;;;;;4990012;28;20050;-85
2022/03/17 09:08:33;;;;;;;1999.90;999.90;;;9.80;73.80;;;;;;4987988;28;20033;-86
2022/03/17 09:10:59;;;;;;;1999.90;999.90;;;9.80;73.80;;;;;;4992589;28;20046;-85
2022/03/17 09:13:25;;;;;;;1999.90;999.90;;;9.80;73.70;;;;;;4987119;28;20407;-86
2022/03/17 09:15:52;;;;;;;1999.90;999.90;;;9.80;73.60;;;;;;4984306;28;20038;-86
2022/03/17 09:18:19;;;;;;;1999.90;999.90;;;9.90;73.70;;;;;;4989630;28;20038;-85
2022/03/17 09:20:45;;;;;;;1999.90;999.90;;;9.90;73.50;;;;;;4988602;28;20496;-85
2022/03/17 09:23:11;;;;;;;1999.90;999.90;;;9.90;73.50;;;;;;4986375;28;20033;-86
2022/03/17 09:25:37;;;;;;;1999.90;999.90;;;9.90;73.40;;;;;;4991128;28;20042;-85
2022/03/17 09:28:04;;;;;;;1999.90;999.90;;;9.90;73.40;;;;;;4987042;28;20069;-86
2022/03/17 09:30:30;;;;;;;1999.90;999.90;;;9.90;73.30;;;;;;4989197;28;20045;-85
2022/03/17 09:32:58;;;;;;;1999.90;999.90;;;9.90;73.30;;;;;;4987735;28;20030;-85
2022/03/17 09:35:25;;;;;;;1999.90;999.90;;;9.90;73.30;;;;;;4990740;28;20030;-85
2022/03/17 09:37:51;;;;;;;1999.90;999.90;;;10.00;73.30;;;;;;4990540;28;20039;-85
2022/03/17 09:40:17;;;;;;;1999.90;999.90;;;10.00;73.10;;;;;;4987657;28;20042;-85
2022/03/17 09:42:43;;;;;;;1999.90;999.90;;;10.00;73.00;;;;;;4982109;28;20114;-84
2022/03/17 09:45:11;;;;;;;1999.90;999.90;;;10.00;73.00;;;;;;4990633;28;20043;-85
2022/03/17 09:47:39;;;;;;;1999.90;999.90;;;10.00;73.00;;;;;;4994120;28;20706;-82
2022/03/17 09:50:07;;;;;;;1999.90;999.90;;;10.00;73.00;;;;;;4972569;28;20043;-87
2022/03/17 09:52:37;;;;;;;1999.90;999.90;;;10.10;72.90;;;;;;4990231;28;20054;-85
2022/03/17 09:55:04;;;;;;;1999.90;999.90;;;10.10;72.90;;;;;;4981669;28;20054;-85
2022/03/17 09:57:31;;;;;;;1999.90;999.90;;;10.10;72.80;;;;;;4988334;28;20035;-85
2022/03/17 09:59:58;;;;;;;1999.90;999.90;;;10.20;72.80;;;;;;4973885;28;20030;-85
2022/03/17 10:02:24;;;;;;;1999.90;999.90;;;10.20;72.70;;;;;;4989248;28;20031;-86
2022/03/17 10:04:51;;;;;;;1999.90;999.90;;;10.20;72.70;;;;;;4987954;28;20030;-85
2022/03/17 10:07:18;;;;;;;1999.90;999.90;;;10.20;72.60;;;;;;4987834;28;20041;-85
2022/03/17 10:09:45;;;;;;;1999.90;999.90;;;10.20;72.60;;;;;;4979984;28;20047;-86
2022/03/17 10:12:12;;;;;;;1999.90;999.90;;;10.20;72.50;;;;;;4989890;28;20061;-84
2022/03/17 10:14:49;;;;;;;1999.90;999.90;;;10.20;72.50;;;;;;4974200;28;20486;-84
2022/03/17 10:17:37;;;;;;;1999.90;999.90;;;10.20;72.40;;;;;;4990764;28;20387;-84
2022/03/17 10:20:15;;;;;;;1999.90;999.90;;;10.20;72.30;;;;;;4986654;28;20030;-85
2022/03/17 10:22:51;;;;;;;1999.90;999.90;;;10.20;72.30;;;;;;4989385;28;20281;-84
2022/03/17 10:25:22;;;;;;;1999.90;999.90;;;10.30;72.20;;;;;;4985817;28;20426;-84
2022/03/17 10:27:54;;;;;;;1999.90;999.90;;;10.30;72.20;;;;;;4977146;28;20499;-84
2022/03/17 10:30:27;;;;;;;1999.90;999.90;;;10.30;72.00;;;;;;4990558;28;20027;-83
2022/03/17 10:32:58;;;;;;;1999.90;999.90;;;10.30;72.00;;;;;;4989678;28;20030;-84
2022/03/17 10:35:35;;;;;;;1999.90;999.90;;;10.40;71.80;;;;;;4990155;28;20038;-82
2022/03/17 10:38:11;;;;;;;1999.90;999.90;;;10.40;71.80;;;;;;4991611;28;20387;-82
2022/03/17 10:40:37;;;;;;;1999.90;999.90;;;10.40;71.60;;;;;;4981959;28;20059;-83
2022/03/17 10:43:23;;;;;;;1999.90;999.90;;;10.50;71.60;;;;;;4993890;28;20114;-82
2022/03/17 10:46:05;;;;;;;1999.90;999.90;;;10.50;71.50;;;;;;4995457;28;20539;-82
2022/03/17 10:48:31;;;;;;;1999.90;999.90;;;10.50;71.30;;;;;;4990533;28;20018;-82
2022/03/17 10:50:58;;;;;;;1999.90;999.90;;;10.60;71.30;;;;;;4991952;28;20038;-80
2022/03/17 10:53:28;;;;;;;1999.90;999.90;;;10.60;71.30;;;;;;4991370;28;20038;-81
2022/03/17 10:56:22;;;;;;;1999.90;999.90;;;10.60;71.30;;;;;;4988513;28;20057;-81
2022/03/17 10:58:50;;;;;;;1999.90;999.90;;;10.70;71.20;;;;;;4987028;28;20047;-84
2022/03/17 11:01:16;;;;;;;1999.90;999.90;;;10.70;71.80;;;;;;4988560;28;20482;-82
2022/03/17 11:03:43;;;;;;;1999.90;999.90;;;10.70;70.90;;;;;;4991154;28;20501;-81
2022/03/17 11:06:09;;;;;;;1999.90;999.90;;;10.70;70.90;;;;;;4974009;28;20038;-87
2022/03/17 11:08:37;;;;;;;1999.90;999.90;;;10.70;70.70;;;;;;4986590;28;20439;-84
2022/03/17 11:11:03;;;;;;;1999.90;999.90;;;10.70;70.80;;;;;;4985049;28;20041;-83
2022/03/17 11:13:31;;;;;;;1999.90;999.90;;;10.70;70.70;;;;;;4985401;28;20042;-84
2022/03/17 11:16:07;;;;;;;1999.90;999.90;;;10.70;70.50;;;;;;4988677;28;20043;-84
2022/03/17 11:18:38;;;;;;;1999.90;999.90;;;10.80;70.60;;;;;;4989133;28;20033;-83
2022/03/17 11:21:26;;;;;;;1999.90;999.90;;;10.80;70.40;;;;;;4981642;28;20410;-83
2022/03/17 11:23:56;;;;;;;1999.90;999.90;;;10.80;70.30;;;;;;4991962;28;20046;-83
2022/03/17 11:26:34;;;;;;;1999.90;999.90;;;10.80;70.10;;;;;;4977337;28;20057;-85
2022/03/17 11:29:06;;;;;;;1999.90;999.90;;;10.70;69.80;;;;;;4989107;28;20034;-82
2022/03/17 11:31:54;;;;;;;1999.90;999.90;;;10.70;69.60;;;;;;4991484;28;20038;-81
2022/03/17 11:34:37;;;;;;;1999.90;999.90;;;10.70;69.70;;;;;;4988682;28;20037;-83
2022/03/17 11:37:26;;;;;;;1999.90;999.90;;;10.70;69.60;;;;;;4991851;28;20037;-83
2022/03/17 11:40:09;;;;;;;1999.90;999.90;;;10.80;69.40;;;;;;4985785;28;20384;-82
2022/03/17 11:42:40;;;;;;;1999.90;999.90;;;10.80;69.20;;;;;;4978937;28;20058;-84
2022/03/17 11:45:15;;;;;;;1999.90;999.90;;;10.80;69.10;;;;;;4988899;28;20284;-81
2022/03/17 11:47:55;;;;;;;1999.90;999.90;;;10.90;69.20;;;;;;4982285;28;20041;-81
2022/03/17 11:50:24;;;;;;;1999.90;999.90;;;10.90;69.00;;;;;;4992618;28;20375;-82
2022/03/17 11:53:06;;;;;;;1999.90;999.90;;;11.00;68.80;;;;;;4983837;28;20030;-85
2022/03/17 11:55:53;;;;;;;1999.90;999.90;;;11.00;68.70;;;;;;4977009;28;20034;-83
2022/03/17 11:58:19;;;;;;;1999.90;999.90;;;11.10;68.70;;;;;;4988423;28;20030;-83
2022/03/17 12:01:11;;;;;;;1999.90;999.90;;;11.10;68.60;;;;;;4986937;28;20523;-83
2022/03/17 12:03:41;;;;;;;1999.90;999.90;;;11.20;69.00;;;;;;4977430;28;20030;-84
2022/03/17 12:06:15;;;;;;;1999.90;999.90;;;11.20;67.90;;;;;;4975456;28;20034;-84
2022/03/17 12:08:53;;;;;;;1999.90;999.90;;;11.20;67.80;;;;;;4987881;28;20022;-83
2022/03/17 12:11:22;;;;;;;1999.90;999.90;;;11.20;67.90;;;;;;4990455;28;20505;-83
2022/03/17 12:14:14;;;;;;;1999.90;999.90;;;11.20;67.60;;;;;;4986008;28;20046;-83
2022/03/17 12:16:54;;;;;;;1999.90;999.90;;;11.30;67.60;;;;;;4981530;28;20026;-83
2022/03/17 12:19:27;;;;;;;1999.90;999.90;;;11.30;67.50;;;;;;4986730;28;20498;-84
2022/03/17 12:22:02;;;;;;;1999.90;999.90;;;11.30;67.40;;;;;;4986105;28;20034;-84
2022/03/17 12:24:47;;;;;;;1999.90;999.90;;;11.40;67.30;;;;;;4989812;28;20479;-84
2022/03/17 12:27:22;;;;;;;1999.90;999.90;;;11.30;67.00;;;;;;4974800;28;20034;-85
2022/03/17 12:30:01;;;;;;;1999.90;999.90;;;11.40;66.90;;;;;;4981580;28;20399;-84
2022/03/17 12:32:32;;;;;;;1999.90;999.90;;;11.40;66.90;;;;;;4987906;28;20042;-84
2022/03/17 12:34:59;;;;;;;1999.90;999.90;;;11.40;66.70;;;;;;4988677;28;20034;-84
2022/03/17 12:37:30;;;;;;;1999.90;999.90;;;11.50;66.80;;;;;;4986459;28;20031;-83
2022/03/17 12:39:59;;;;;;;1999.90;999.90;;;11.50;66.50;;;;;;4986564;28;20072;-84